Portada
METAR-TAF:

METAR-TAF

Aeropuertos :

Aeropuerto Internacional de Chengdú-Shuangliu

Chengdu, China

latitud: 30-40N, longitud: 104-01E, altitud: 508 m

Observación

El informe se hizo hace 50 minutos, a las 14:00 UTC
Viento 4 kt del norte, variando entre noroeste y norte-noreste
Temperatura 27°C
Humedad 62%
Presión 1009 hPa
Visibilidad 10 km o más
Nubes dispersas a una altura de 5000 ft

METAR: ZUUU 241400Z 35002MPS 310V020 9999 SCT050 27/19 Q1009 NOSIG

Hora: 22:50 (14:50 UTC)

Pronóstico

El informe se hizo hace 6 horas y 47 minutos, a las 08:03 UTC
Pronóstico válido del 24 a las 12 UTC al 25 a las 12 UTC
Viento 6 kt del suroeste
Visibilidad: 6000 m

TAF: ZUUU 240803Z 2412/2512 22003MPS 6000 NSC TX34/2507Z TN20/2423Z

Observaciones y pronósticos meteorológicos de más de 4000 aeropuertos (mensajes METAR y TAF).

Los puntos amarillos y rojos representan las estaciones disponibles.

Ponga el ratón en el punto deseado para ver el nombre de la estación.

Haga clic para ver las observaciones y los pronósticos meteorológicos.

Para cambiar el mapa : haga clic en los botones verdes con una cruz de color negro para hacer un zoom, en el botón verde con un guión para alejar o en las flechas verdes para mapas adyacentes.


METAR-TAF: